Time;durP1;ratioP1;P1;durP2;ratioP2;P2;SDS_P1;SDS_P2;PMS_P1;PMS_P2;Temp;Humidity;BMP_temperature;BMP_pressure;BME280_temperature;BME280_humidity;BME280_pressure;Samples;Min_cycle;Max_cycle;Signal;HPM_P1;HPM_P2
2023/03/27 00:01:24;;;;;;;3.63;1.85;;;21.60;32.10;;;;;;4990722;28;20038;-47
2023/03/27 00:03:52;;;;;;;3.45;1.63;;;21.60;32.10;;;;;;4990056;28;20096;-51
2023/03/27 00:06:19;;;;;;;4.53;1.80;;;21.60;32.10;;;;;;4988836;28;20092;-49
2023/03/27 00:08:47;;;;;;;3.92;1.85;;;21.60;32.10;;;;;;4988618;28;20042;-50
2023/03/27 00:11:13;;;;;;;2.58;1.48;;;21.60;32.70;;;;;;4989998;28;20461;-50
2023/03/27 00:13:40;;;;;;;4.05;1.77;;;21.60;32.00;;;;;;4988046;28;20458;-49
2023/03/27 00:16:07;;;;;;;3.50;1.60;;;21.60;32.10;;;;;;4988475;28;20550;-52
2023/03/27 00:18:33;;;;;;;3.05;1.65;;;21.60;32.00;;;;;;4987073;28;20030;-51
2023/03/27 00:21:00;;;;;;;3.17;1.52;;;21.60;32.00;;;;;;4990778;28;20026;-50
2023/03/27 00:23:29;;;;;;;3.33;1.63;;;21.60;32.00;;;;;;4989984;28;20088;-47
2023/03/27 00:25:56;;;;;;;3.55;1.50;;;21.60;32.60;;;;;;4990874;28;20034;-49
2023/03/27 00:28:25;;;;;;;4.53;1.52;;;21.60;32.00;;;;;;4989643;28;20042;-50
2023/03/27 00:30:53;;;;;;;2.42;1.20;;;21.50;31.90;;;;;;4989642;28;20062;-49
2023/03/27 00:33:19;;;;;;;3.20;1.30;;;21.50;31.90;;;;;;4987816;28;20358;-49
2023/03/27 00:35:47;;;;;;;3.13;1.40;;;21.50;31.90;;;;;;4988365;28;20050;-49
2023/03/27 00:38:15;;;;;;;3.47;1.60;;;21.50;31.90;;;;;;4989803;28;20045;-51
2023/03/27 00:40:42;;;;;;;3.33;1.40;;;21.50;31.90;;;;;;4989499;28;20036;-47
2023/03/27 00:43:25;;;;;;;2.95;1.45;;;21.50;31.90;;;;;;4988509;28;20463;-49
2023/03/27 00:46:00;;;;;;;3.30;1.52;;;21.50;31.90;;;;;;4990521;28;20074;-48
2023/03/27 00:48:27;;;;;;;3.13;1.30;;;21.50;32.00;;;;;;4989051;28;20386;-50
2023/03/27 00:50:56;;;;;;;4.28;1.67;;;21.50;32.10;;;;;;4991283;28;20037;-51
2023/03/27 00:53:25;;;;;;;4.65;1.38;;;21.50;32.20;;;;;;4991502;28;20038;-49
2023/03/27 00:55:54;;;;;;;3.38;1.48;;;21.50;32.10;;;;;;4993715;28;20038;-49
2023/03/27 00:58:27;;;;;;;3.38;1.38;;;21.40;32.00;;;;;;4991827;28;20027;-49
2023/03/27 01:00:55;;;;;;;3.40;1.38;;;21.40;32.00;;;;;;4993197;28;20041;-46
2023/03/27 01:03:23;;;;;;;2.28;1.25;;;21.40;32.00;;;;;;4989923;28;20104;-51
2023/03/27 01:05:51;;;;;;;3.13;1.40;;;21.40;32.00;;;;;;4992064;28;20037;-50
2023/03/27 01:08:18;;;;;;;2.50;1.23;;;21.40;32.00;;;;;;4991188;28;20450;-51
2023/03/27 01:11:05;;;;;;;2.42;1.20;;;21.40;32.00;;;;;;4992971;28;20153;-51
2023/03/27 01:13:59;;;;;;;3.22;1.25;;;21.40;32.10;;;;;;4991991;28;20385;-50
2023/03/27 01:17:12;;;;;;;3.55;1.20;;;21.40;32.00;;;;;;4991548;28;20042;-49
2023/03/27 01:19:47;;;;;;;1.75;1.15;;;21.40;32.10;;;;;;4989588;28;20453;-47
2023/03/27 01:22:41;;;;;;;3.95;1.23;;;21.40;32.10;;;;;;4992168;28;20022;-51
2023/03/27 01:25:18;;;;;;;2.85;1.08;;;21.40;32.10;;;;;;4991044;28;20168;-48
2023/03/27 01:28:07;;;;;;;3.58;1.30;;;21.30;32.00;;;;;;4991667;28;20460;-47
2023/03/27 01:30:35;;;;;;;2.60;1.10;;;21.30;32.00;;;;;;4990270;28;20030;-52
2023/03/27 01:33:39;;;;;;;3.13;1.10;;;21.30;32.00;;;;;;4993267;28;20022;-52
2023/03/27 01:36:13;;;;;;;3.30;1.08;;;21.30;32.00;;;;;;4991205;28;20038;-51
2023/03/27 01:38:57;;;;;;;;;;;21.30;32.00;;;;;;4992777;28;20351;-49
2023/03/27 01:41:31;;;;;;;3.05;1.00;;;21.30;32.00;;;;;;4991446;28;19914;-50
2023/03/27 01:44:41;;;;;;;2.97;1.08;;;21.30;32.00;;;;;;4991249;28;20037;-48
2023/03/27 01:47:20;;;;;;;3.05;1.10;;;21.30;32.00;;;;;;4927807;29;20123;-49
2023/03/27 01:50:05;;;;;;;3.38;1.10;;;21.20;32.00;;;;;;5003078;28;20113;-50
2023/03/27 01:52:37;;;;;;;4.00;1.40;;;21.20;32.00;;;;;;4991713;28;20026;-50
2023/03/27 01:55:08;;;;;;;3.47;0.90;;;21.20;32.00;;;;;;4990842;28;20049;-53
2023/03/27 01:57:44;;;;;;;3.30;0.90;;;21.20;32.00;;;;;;4989677;28;20037;-51
2023/03/27 02:00:16;;;;;;;3.33;1.33;;;21.20;32.00;;;;;;4988162;28;20450;-47
2023/03/27 02:03:00;;;;;;;3.35;1.00;;;21.20;32.00;;;;;;4991630;28;20022;-49
2023/03/27 02:05:32;;;;;;;3.67;1.13;;;21.20;32.00;;;;;;4990184;28;20061;-50
2023/03/27 02:08:25;;;;;;;3.90;1.27;;;21.20;32.00;;;;;;4989793;28;20105;-48
2023/03/27 02:10:58;;;;;;;2.78;0.82;;;21.20;32.00;;;;;;4990404;28;20343;-48
2023/03/27 02:13:35;;;;;;;2.55;1.10;;;21.20;32.00;;;;;;4990281;28;20039;-47
2023/03/27 02:16:02;;;;;;;2.72;0.98;;;21.20;32.00;;;;;;4990314;28;20177;-49
2023/03/27 02:18:34;;;;;;;2.70;1.10;;;21.20;32.00;;;;;;4990351;28;20041;-49
2023/03/27 02:21:01;;;;;;;3.10;1.10;;;21.20;32.00;;;;;;4987960;28;20091;-47
2023/03/27 02:23:29;;;;;;;2.75;1.05;;;21.10;32.00;;;;;;4990259;28;20458;-47
2023/03/27 02:25:56;;;;;;;1.73;0.80;;;21.10;32.00;;;;;;4990807;28;20026;-47
2023/03/27 02:28:40;;;;;;;2.30;0.80;;;21.20;32.00;;;;;;4988934;28;20096;-51
2023/03/27 02:31:48;;;;;;;2.78;1.00;;;21.10;32.00;;;;;;4992330;28;20505;-50
2023/03/27 02:34:28;;;;;;;1.80;0.75;;;21.20;32.10;;;;;;4982151;28;20574;-47
2023/03/27 02:37:02;;;;;;;2.38;0.70;;;21.10;32.10;;;;;;4989626;28;20365;-49
2023/03/27 02:39:57;;;;;;;3.17;0.85;;;21.10;32.10;;;;;;4989908;28;20125;-47
2023/03/27 02:43:17;;;;;;;2.85;0.90;;;21.10;32.10;;;;;;4990731;28;20121;-48
2023/03/27 02:46:03;;;;;;;2.67;0.70;;;21.10;32.10;;;;;;4930284;29;20371;-51
2023/03/27 02:48:34;;;;;;;2.67;0.77;;;21.10;32.20;;;;;;4999842;28;20093;-49
2023/03/27 02:51:31;;;;;;;2.05;1.00;;;21.10;32.20;;;;;;4991055;28;20158;-51
2023/03/27 02:53:57;;;;;;;1.58;0.65;;;21.00;32.10;;;;;;4974648;28;20042;-51
2023/03/27 02:56:27;;;;;;;2.50;0.90;;;21.00;32.10;;;;;;4990281;28;20042;-49
2023/03/27 02:59:09;;;;;;;2.58;0.80;;;21.00;32.10;;;;;;4989731;28;21439;-48
2023/03/27 03:01:40;;;;;;;2.13;0.75;;;21.00;32.10;;;;;;4990035;28;20030;-53
2023/03/27 03:04:40;;;;;;;1.33;0.60;;;21.00;32.10;;;;;;4988792;28;20362;-52
2023/03/27 03:07:13;;;;;;;2.05;0.77;;;21.00;32.10;;;;;;4981225;28;20375;-50
2023/03/27 03:09:41;;;;;;;1.77;0.70;;;21.00;32.20;;;;;;4982616;28;20045;-53
2023/03/27 03:12:08;;;;;;;1.65;0.50;;;21.00;32.20;;;;;;4990878;28;20057;-47
2023/03/27 03:14:42;;;;;;;1.52;0.70;;;21.00;32.20;;;;;;4987807;28;20909;-49
2023/03/27 03:17:10;;;;;;;1.17;0.60;;;21.00;32.20;;;;;;4972802;28;20030;-52
2023/03/27 03:19:36;;;;;;;3.00;0.70;;;21.00;32.80;;;;;;4989526;28;20105;-49
2023/03/27 03:22:03;;;;;;;2.47;0.80;;;21.00;32.20;;;;;;4990121;28;20447;-48
2023/03/27 03:24:32;;;;;;;2.30;0.75;;;21.00;32.20;;;;;;4989978;28;20365;-50
2023/03/27 03:27:01;;;;;;;0.80;0.50;;;21.00;32.30;;;;;;4989236;28;20061;-51
2023/03/27 03:29:34;;;;;;;2.15;0.60;;;21.00;32.30;;;;;;4991732;28;20413;-50
2023/03/27 03:32:10;;;;;;;2.40;0.75;;;21.00;32.40;;;;;;4988282;28;20026;-48
2023/03/27 03:34:40;;;;;;;2.55;0.85;;;21.00;32.30;;;;;;4990252;28;20092;-48
2023/03/27 03:37:09;;;;;;;1.52;0.60;;;21.00;32.30;;;;;;4991051;28;20096;-48
2023/03/27 03:39:35;;;;;;;1.10;0.40;;;21.00;32.90;;;;;;4991323;28;20030;-46
2023/03/27 03:42:01;;;;;;;1.38;0.55;;;21.00;32.30;;;;;;4988151;28;20125;-48
2023/03/27 03:44:27;;;;;;;1.60;0.75;;;21.00;32.30;;;;;;4988654;28;20030;-53
2023/03/27 03:46:54;;;;;;;1.30;0.40;;;20.90;32.20;;;;;;4991479;28;20026;-49
2023/03/27 03:49:20;;;;;;;2.35;0.50;;;20.90;32.30;;;;;;4990215;28;20018;-50
2023/03/27 03:51:46;;;;;;;1.77;0.50;;;20.90;32.30;;;;;;4991077;28;20482;-52
2023/03/27 03:54:12;;;;;;;2.00;0.70;;;20.90;32.30;;;;;;4991593;28;20038;-50
2023/03/27 03:56:42;;;;;;;1.70;0.70;;;20.90;32.30;;;;;;4991048;28;20119;-52
2023/03/27 03:59:09;;;;;;;1.67;0.50;;;20.90;32.30;;;;;;4990086;28;20066;-51
2023/03/27 04:01:36;;;;;;;2.00;0.65;;;20.90;33.00;;;;;;4989965;28;20027;-50
2023/03/27 04:04:05;;;;;;;0.98;0.47;;;20.90;32.40;;;;;;4990538;28;20041;-46
2023/03/27 04:06:51;;;;;;;0.90;0.43;;;20.90;32.60;;;;;;4991529;28;20343;-51
2023/03/27 04:09:17;;;;;;;1.85;0.40;;;20.90;32.40;;;;;;4990703;28;20152;-48
2023/03/27 04:12:01;;;;;;;3.20;0.40;;;20.90;32.40;;;;;;4991204;28;20524;-50
2023/03/27 04:14:57;;;;;;;0.93;0.40;;;20.80;32.40;;;;;;4978665;28;20053;-53
2023/03/27 04:17:49;;;;;;;1.15;0.55;;;20.80;32.40;;;;;;4969612;28;20045;-47
2023/03/27 04:20:16;;;;;;;1.15;0.57;;;20.80;32.40;;;;;;4991879;28;20034;-49
2023/03/27 04:22:47;;;;;;;0.93;0.30;;;20.80;32.40;;;;;;4989898;28;20037;-52
2023/03/27 04:25:16;;;;;;;1.02;0.40;;;20.80;32.40;;;;;;4993428;28;20061;-50
2023/03/27 04:27:43;;;;;;;0.90;0.40;;;20.80;32.40;;;;;;4992285;28;20030;-48
2023/03/27 04:30:29;;;;;;;0.80;0.30;;;20.80;32.40;;;;;;4994044;28;20022;-48
2023/03/27 04:33:17;;;;;;;1.17;0.40;;;20.80;32.40;;;;;;4993162;28;20092;-50
2023/03/27 04:35:59;;;;;;;0.77;0.40;;;20.80;32.50;;;;;;4992343;28;20046;-45
2023/03/27 04:38:30;;;;;;;0.80;0.30;;;20.70;32.50;;;;;;4992305;28;20347;-50
2023/03/27 04:40:58;;;;;;;1.05;0.30;;;20.80;32.50;;;;;;4995310;28;20029;-49
2023/03/27 04:43:25;;;;;;;2.13;0.45;;;20.80;32.50;;;;;;4994403;28;20365;-48
2023/03/27 04:45:52;;;;;;;1.20;0.60;;;20.80;32.60;;;;;;4994743;28;20026;-48
2023/03/27 04:48:19;;;;;;;1.33;0.40;;;20.80;32.60;;;;;;4994016;28;20057;-50
2023/03/27 04:50:49;;;;;;;0.70;0.28;;;20.70;32.60;;;;;;4994718;28;20041;-49
2023/03/27 04:53:29;;;;;;;0.77;0.38;;;20.80;32.60;;;;;;4994251;28;20035;-48
2023/03/27 04:55:56;;;;;;;1.02;0.40;;;20.70;32.60;;;;;;4992967;28;20466;-53
2023/03/27 04:58:25;;;;;;;1.63;0.30;;;20.80;32.70;;;;;;4992934;28;20069;-51
2023/03/27 05:00:54;;;;;;;0.77;0.30;;;20.70;32.60;;;;;;4995010;28;20109;-51
2023/03/27 05:03:40;;;;;;;0.88;0.30;;;20.70;32.60;;;;;;4994071;28;20037;-51
2023/03/27 05:06:25;;;;;;;0.63;0.38;;;20.70;32.60;;;;;;4979484;28;20027;-49
2023/03/27 05:08:51;;;;;;;1.17;0.30;;;20.70;32.80;;;;;;4992472;28;20102;-49
2023/03/27 05:11:24;;;;;;;1.70;0.40;;;20.70;32.70;;;;;;4994351;28;20044;-50
2023/03/27 05:13:50;;;;;;;1.25;0.30;;;20.70;32.70;;;;;;5000290;28;20097;-50
2023/03/27 05:16:20;;;;;;;1.10;0.40;;;20.70;32.70;;;;;;4990715;28;20053;-49
2023/03/27 05:18:49;;;;;;;0.93;0.28;;;20.70;32.70;;;;;;4992164;28;21097;-48
2023/03/27 05:21:15;;;;;;;1.55;0.38;;;20.70;32.70;;;;;;4995199;28;20041;-50
2023/03/27 05:23:42;;;;;;;0.30;0.20;;;20.70;32.70;;;;;;4992254;28;20038;-52
2023/03/27 05:26:08;;;;;;;0.85;0.35;;;20.70;32.80;;;;;;4992225;28;20048;-48
2023/03/27 05:29:04;;;;;;;0.50;0.30;;;20.60;32.80;;;;;;4982818;28;20157;-52
2023/03/27 05:31:32;;;;;;;0.50;0.20;;;20.60;32.80;;;;;;4994025;28;20034;-51
2023/03/27 05:34:18;;;;;;;1.50;0.40;;;20.60;32.70;;;;;;4991826;28;20026;-50
2023/03/27 05:36:45;;;;;;;0.73;0.30;;;20.60;32.80;;;;;;5008961;28;20030;-51
2023/03/27 05:39:12;;;;;;;0.45;0.30;;;20.70;32.90;;;;;;4993338;28;20053;-50
2023/03/27 05:41:40;;;;;;;0.80;0.38;;;20.70;32.90;;;;;;4992690;28;20026;-48
2023/03/27 05:44:06;;;;;;;1.05;0.32;;;20.60;32.80;;;;;;4992974;28;20433;-47
2023/03/27 05:46:41;;;;;;;0.70;0.38;;;20.60;32.90;;;;;;4991334;28;20038;-49
2023/03/27 05:49:14;;;;;;;0.88;0.40;;;20.60;32.90;;;;;;4992510;28;20023;-53
2023/03/27 05:51:42;;;;;;;0.30;0.20;;;20.60;32.90;;;;;;4992898;28;20346;-51
2023/03/27 05:54:08;;;;;;;0.57;0.30;;;20.60;32.90;;;;;;4993464;28;20033;-48
2023/03/27 05:56:41;;;;;;;2.08;0.60;;;20.60;32.90;;;;;;4991857;28;20031;-46
2023/03/27 05:59:06;;;;;;;1.27;0.32;;;20.60;32.90;;;;;;4992257;28;20346;-51
2023/03/27 06:01:34;;;;;;;0.22;0.10;;;20.60;32.90;;;;;;4992645;28;20362;-51
2023/03/27 06:04:03;;;;;;;0.95;0.38;;;20.60;33.00;;;;;;4990685;28;20022;-51
2023/03/27 06:06:54;;;;;;;0.98;0.30;;;20.60;33.00;;;;;;4989999;28;20045;-51
2023/03/27 06:09:21;;;;;;;0.88;0.40;;;20.60;33.00;;;;;;4992169;28;20022;-53
2023/03/27 06:12:07;;;;;;;0.47;0.20;;;20.60;33.00;;;;;;4992822;28;20049;-48
2023/03/27 06:14:37;;;;;;;0.70;0.40;;;20.60;33.00;;;;;;4988376;28;20500;-51
2023/03/27 06:17:25;;;;;;;1.67;0.55;;;20.60;33.00;;;;;;4990778;28;20134;-52
2023/03/27 06:19:58;;;;;;;1.25;0.30;;;20.60;33.00;;;;;;4987886;28;20026;-52
2023/03/27 06:22:25;;;;;;;1.42;0.50;;;20.60;33.10;;;;;;4990209;28;20026;-51
2023/03/27 06:24:54;;;;;;;1.48;0.45;;;20.50;33.00;;;;;;4992595;28;20362;-50
2023/03/27 06:27:21;;;;;;;1.30;0.60;;;20.60;33.10;;;;;;4992092;28;20614;-49
2023/03/27 06:29:47;;;;;;;0.90;0.22;;;20.50;33.10;;;;;;4992684;28;20022;-47
2023/03/27 06:32:13;;;;;;;0.40;0.22;;;20.50;33.10;;;;;;4990153;28;20026;-49
2023/03/27 06:34:48;;;;;;;1.83;0.30;;;20.50;33.10;;;;;;4988263;28;20097;-49
2023/03/27 06:37:35;;;;;;;0.77;0.30;;;20.50;33.20;;;;;;4991171;28;20084;-50
2023/03/27 06:40:08;;;;;;;1.75;0.30;;;20.60;33.20;;;;;;4988818;28;20370;-52
2023/03/27 06:42:37;;;;;;;0.55;0.30;;;20.50;33.20;;;;;;4989231;28;20065;-49
2023/03/27 06:45:41;;;;;;;0.90;0.30;;;20.50;33.80;;;;;;4990009;28;20041;-52
2023/03/27 06:48:25;;;;;;;2.08;0.68;;;20.60;33.20;;;;;;4990447;28;20484;-52
2023/03/27 06:50:56;;;;;;;1.15;0.50;;;20.50;33.10;;;;;;4987654;28;20118;-48
2023/03/27 06:53:22;;;;;;;1.00;0.60;;;20.60;33.20;;;;;;4989998;28;20181;-52
2023/03/27 06:55:49;;;;;;;3.85;0.70;;;20.50;33.20;;;;;;4989863;28;20038;-53
2023/03/27 06:58:17;;;;;;;2.15;0.93;;;20.50;33.20;;;;;;4989730;28;20450;-46
2023/03/27 07:00:45;;;;;;;2.75;1.25;;;20.50;33.20;;;;;;4989320;28;20113;-51
2023/03/27 07:03:17;;;;;;;3.15;1.40;;;20.50;33.20;;;;;;4990839;28;20069;-50
2023/03/27 07:06:02;;;;;;;3.20;1.88;;;20.50;33.20;;;;;;4989140;28;20148;-51
2023/03/27 07:08:35;;;;;;;3.60;1.92;;;20.50;33.20;;;;;;4984063;28;20079;-49
2023/03/27 07:11:02;;;;;;;3.60;2.60;;;20.50;33.10;;;;;;4989221;28;20034;-51
2023/03/27 07:13:29;;;;;;;2.70;2.10;;;20.50;33.10;;;;;;4988338;28;20057;-52
2023/03/27 07:15:58;;;;;;;4.63;2.80;;;20.50;33.10;;;;;;4987258;28;20043;-47
2023/03/27 07:18:25;;;;;;;5.75;3.33;;;20.50;33.30;;;;;;4987608;28;20070;-49
2023/03/27 07:20:52;;;;;;;4.85;3.63;;;20.50;33.30;;;;;;4985967;28;20408;-54
2023/03/27 07:23:21;;;;;;;6.63;4.15;;;20.50;33.40;;;;;;4991805;28;20058;-50
2023/03/27 07:25:58;;;;;;;8.07;5.50;;;20.50;33.60;;;;;;4994292;28;20461;-52
2023/03/27 07:28:44;;;;;;;9.35;5.90;;;20.50;33.70;;;;;;4995478;28;20464;-48
2023/03/27 07:31:12;;;;;;;8.55;6.57;;;20.50;33.90;;;;;;4994206;28;20045;-47
2023/03/27 07:33:39;;;;;;;8.90;6.57;;;20.50;34.10;;;;;;4994239;28;20035;-51
2023/03/27 07:36:07;;;;;;;7.38;5.70;;;20.60;34.30;;;;;;4995003;28;20057;-46
2023/03/27 07:38:40;;;;;;;8.13;5.35;;;20.60;34.40;;;;;;4999241;28;20033;-51
2023/03/27 07:41:29;;;;;;;7.43;4.93;;;20.60;34.30;;;;;;4995275;28;20029;-53
2023/03/27 07:43:56;;;;;;;7.65;5.32;;;20.60;34.30;;;;;;4995026;28;20126;-48
2023/03/27 07:46:25;;;;;;;8.50;5.07;;;20.60;34.30;;;;;;4994419;28;20158;-47
2023/03/27 07:48:54;;;;;;;8.52;5.32;;;20.70;34.40;;;;;;4992663;28;20137;-46
2023/03/27 07:51:22;;;;;;;10.52;4.75;;;20.70;34.40;;;;;;4994284;28;20038;-51
2023/03/27 07:53:52;;;;;;;5.80;4.60;;;20.70;34.30;;;;;;4989912;28;20027;-51
2023/03/27 07:56:26;;;;;;;6.00;4.10;;;20.80;34.20;;;;;;4988782;28;20046;-47
2023/03/27 07:59:15;;;;;;;6.25;4.22;;;20.80;34.00;;;;;;4988463;28;20556;-52
2023/03/27 08:01:42;;;;;;;6.22;3.88;;;20.80;33.90;;;;;;4991059;28;20041;-49
2023/03/27 08:04:08;;;;;;;6.97;3.80;;;20.90;33.80;;;;;;4992087;28;20034;-51
2023/03/27 08:06:37;;;;;;;5.15;3.85;;;20.90;33.70;;;;;;4983399;28;20031;-49
2023/03/27 08:09:07;;;;;;;4.82;3.42;;;20.90;33.60;;;;;;4989520;28;20030;-47
2023/03/27 08:11:35;;;;;;;7.43;4.00;;;21.00;33.50;;;;;;4994027;28;20038;-48
2023/03/27 08:14:02;;;;;;;5.20;3.60;;;21.00;33.40;;;;;;4988705;28;20115;-47
2023/03/27 08:16:28;;;;;;;5.80;3.72;;;21.00;33.30;;;;;;4992775;28;20052;-45
2023/03/27 08:19:01;;;;;;;5.55;3.60;;;21.10;33.20;;;;;;4992767;28;20044;-51
2023/03/27 08:21:30;;;;;;;5.82;3.63;;;21.10;33.10;;;;;;4997541;28;20362;-47
2023/03/27 08:23:58;;;;;;;4.82;3.30;;;21.10;33.10;;;;;;4989966;28;20338;-51
2023/03/27 08:26:27;;;;;;;5.75;3.17;;;21.20;33.10;;;;;;4996798;28;20045;-46
2023/03/27 08:28:58;;;;;;;3.88;2.92;;;21.20;33.00;;;;;;4992264;28;20069;-46
2023/03/27 08:31:29;;;;;;;5.85;3.40;;;21.20;32.90;;;;;;4988158;28;20410;-48
2023/03/27 08:33:58;;;;;;;6.38;3.70;;;21.20;32.80;;;;;;4977944;28;20126;-48
2023/03/27 08:36:27;;;;;;;6.05;3.85;;;21.20;32.80;;;;;;4978162;28;20035;-47
2023/03/27 08:38:54;;;;;;;4.88;3.30;;;21.20;32.80;;;;;;4978483;28;20019;-46
2023/03/27 08:41:58;;;;;;;4.65;2.92;;;21.30;32.80;;;;;;4919359;29;20387;-50
2023/03/27 08:44:35;;;;;;;5.47;3.45;;;21.30;32.70;;;;;;4968993;28;20125;-48
2023/03/27 08:47:25;;;;;;;4.53;3.20;;;21.30;32.70;;;;;;4995037;28;20026;-48
2023/03/27 08:50:08;;;;;;;6.30;3.72;;;21.40;32.60;;;;;;4997086;28;20056;-49
2023/03/27 08:52:45;;;;;;;4.30;2.78;;;21.40;32.60;;;;;;4995405;28;20026;-51
2023/03/27 08:55:32;;;;;;;4.35;2.67;;;21.40;32.60;;;;;;4992580;28;20373;-53
2023/03/27 08:58:18;;;;;;;5.32;3.55;;;21.40;32.50;;;;;;4997148;28;20037;-46
2023/03/27 09:00:58;;;;;;;5.57;3.40;;;21.40;32.40;;;;;;4996043;28;20078;-50
2023/03/27 09:03:30;;;;;;;6.35;3.33;;;21.40;32.40;;;;;;4997275;28;20421;-51
2023/03/27 09:06:23;;;;;;;5.93;2.90;;;21.40;32.40;;;;;;4997097;28;20299;-50
2023/03/27 09:09:21;;;;;;;4.22;3.10;;;21.40;32.30;;;;;;4994839;28;20045;-47
2023/03/27 09:12:38;;;;;;;5.00;3.17;;;21.40;32.20;;;;;;4985683;28;20042;-49
2023/03/27 09:15:11;;;;;;;4.45;3.10;;;21.40;32.20;;;;;;4921890;29;20087;-48
2023/03/27 09:18:13;;;;;;;5.13;2.97;;;21.40;32.20;;;;;;4983781;28;20450;-47
2023/03/27 09:20:46;;;;;;;4.88;3.00;;;21.40;32.20;;;;;;4953805;28;20458;-50
2023/03/27 09:23:26;;;;;;;4.88;3.15;;;21.40;32.20;;;;;;4996690;28;20044;-47
2023/03/27 09:26:37;;;;;;;3.83;2.70;;;21.40;32.20;;;;;;4997848;28;20089;-50
2023/03/27 09:29:16;;;;;;;3.63;2.83;;;21.40;32.20;;;;;;4995048;28;20323;-48
2023/03/27 09:31:46;;;;;;;3.17;2.38;;;21.40;32.30;;;;;;4996543;28;20033;-51
2023/03/27 09:34:33;;;;;;;4.20;2.88;;;21.40;32.20;;;;;;4995534;28;20030;-50
2023/03/27 09:36:59;;;;;;;4.22;2.60;;;21.40;32.30;;;;;;4996145;28;20046;-52
2023/03/27 09:39:32;;;;;;;3.95;2.50;;;21.40;32.30;;;;;;4996826;28;20038;-51
2023/03/27 09:42:36;;;;;;;4.40;2.90;;;21.40;32.20;;;;;;4996348;28;20119;-50
2023/03/27 09:45:06;;;;;;;2.75;2.28;;;21.40;32.10;;;;;;4993493;28;20049;-47
2023/03/27 09:47:48;;;;;;;;;;;21.50;32.20;;;;;;4977065;28;20045;-47
2023/03/27 09:50:30;;;;;;;4.93;2.67;;;21.50;32.10;;;;;;4976835;28;19920;-45
2023/03/27 09:53:13;;;;;;;4.43;3.22;;;21.50;32.10;;;;;;4976896;28;20038;-48
2023/03/27 09:55:49;;;;;;;4.00;2.88;;;21.50;32.00;;;;;;4981282;28;20066;-51
2023/03/27 09:58:23;;;;;;;4.28;2.72;;;21.50;32.00;;;;;;4996240;28;20546;-51
2023/03/27 10:01:26;;;;;;;4.25;2.88;;;21.50;31.90;;;;;;4995950;28;20034;-48
2023/03/27 10:03:56;;;;;;;3.70;2.95;;;21.50;31.80;;;;;;4997065;28;20030;-47
2023/03/27 10:06:42;;;;;;;4.38;3.10;;;21.60;31.80;;;;;;4995989;28;20096;-52
2023/03/27 10:09:23;;;;;;;4.38;2.97;;;21.60;32.40;;;;;;4994979;28;20053;-49
2023/03/27 10:12:19;;;;;;;4.43;3.17;;;21.60;31.70;;;;;;4996529;28;20508;-47
2023/03/27 10:14:48;;;;;;;3.90;2.83;;;21.60;31.70;;;;;;4995680;28;20096;-50
2023/03/27 10:17:35;;;;;;;4.13;3.10;;;21.60;31.60;;;;;;4994891;28;20034;-48
2023/03/27 10:20:16;;;;;;;5.07;3.00;;;21.60;31.60;;;;;;4961208;28;20031;-48
2023/03/27 10:22:53;;;;;;;4.97;2.85;;;21.60;31.70;;;;;;4976129;28;20450;-47
2023/03/27 10:25:40;;;;;;;4.40;3.45;;;21.60;31.70;;;;;;4976259;28;20134;-49
2023/03/27 10:28:21;;;;;;;4.25;3.45;;;21.60;31.70;;;;;;4976115;28;20089;-50
2023/03/27 10:31:23;;;;;;;5.35;3.92;;;21.60;31.80;;;;;;4976035;28;20046;-50
2023/03/27 10:33:59;;;;;;;4.80;3.70;;;21.60;31.80;;;;;;4986388;28;20023;-53
2023/03/27 10:36:46;;;;;;;6.05;4.28;;;21.60;31.80;;;;;;4996188;28;20209;-49
2023/03/27 10:39:15;;;;;;;5.95;4.00;;;21.50;31.70;;;;;;4995352;28;20030;-49
2023/03/27 10:41:55;;;;;;;6.65;4.90;;;21.60;31.80;;;;;;4995264;28;20030;-48
2023/03/27 10:44:24;;;;;;;6.32;4.68;;;21.60;31.70;;;;;;4990936;28;20042;-49
2023/03/27 10:46:56;;;;;;;6.10;4.63;;;21.60;31.70;;;;;;4995469;28;20027;-46
2023/03/27 10:49:42;;;;;;;6.35;4.93;;;21.60;31.70;;;;;;4995309;28;20038;-49
2023/03/27 10:52:44;;;;;;;8.38;5.50;;;21.60;31.60;;;;;;4995166;28;20057;-48
2023/03/27 10:55:33;;;;;;;13.27;11.20;;;21.60;31.50;;;;;;4953661;28;20038;-46
2023/03/27 10:58:14;;;;;;;19.60;15.65;;;21.60;32.20;;;;;;4993477;28;20110;-50
2023/03/27 11:00:47;;;;;;;17.27;14.70;;;21.60;32.80;;;;;;5005750;28;20030;-48
2023/03/27 11:03:25;;;;;;;16.95;14.27;;;21.60;32.80;;;;;;4993777;28;20029;-47
2023/03/27 11:05:59;;;;;;;16.15;13.70;;;21.60;32.70;;;;;;4977770;28;20096;-47
2023/03/27 11:09:10;;;;;;;16.42;13.77;;;21.60;32.50;;;;;;4984274;28;20414;-46
2023/03/27 11:12:03;;;;;;;15.60;13.55;;;21.60;32.30;;;;;;4990712;28;20238;-48
2023/03/27 11:15:01;;;;;;;16.13;13.23;;;21.60;32.10;;;;;;4990870;28;20111;-45
2023/03/27 11:17:49;;;;;;;16.48;13.25;;;21.60;31.90;;;;;;4987724;28;20042;-46
2023/03/27 11:20:32;;;;;;;13.55;11.63;;;21.60;31.70;;;;;;4994667;28;20108;-50
2023/03/27 11:23:28;;;;;;;13.80;11.65;;;21.70;31.70;;;;;;4992434;28;20030;-49
2023/03/27 11:26:17;;;;;;;15.80;12.60;;;21.70;31.50;;;;;;4993826;28;20529;-47
2023/03/27 11:28:54;;;;;;;14.57;12.07;;;21.60;31.50;;;;;;4994661;28;20061;-49
2023/03/27 11:31:39;;;;;;;14.88;12.05;;;21.60;31.40;;;;;;4991905;28;20053;-45
2023/03/27 11:34:18;;;;;;;13.35;10.57;;;21.60;31.30;;;;;;4992899;28;20089;-47
2023/03/27 11:36:50;;;;;;;14.57;11.32;;;21.60;31.20;;;;;;4983107;28;20046;-49
2023/03/27 11:39:59;;;;;;;13.40;10.02;;;21.60;31.10;;;;;;4981931;28;20030;-48
2023/03/27 11:42:31;;;;;;;13.85;10.05;;;21.70;31.10;;;;;;4985980;28;20022;-50
2023/03/27 11:45:03;;;;;;;11.88;9.65;;;21.60;31.10;;;;;;4986409;28;20042;-48
2023/03/27 11:47:49;;;;;;;12.02;9.00;;;21.60;31.10;;;;;;4992373;28;20030;-47
2023/03/27 11:50:28;;;;;;;10.88;8.85;;;21.60;31.10;;;;;;4990052;28;20034;-47
2023/03/27 11:53:07;;;;;;;13.80;9.93;;;21.60;31.20;;;;;;4993443;28;20034;-46
2023/03/27 11:56:04;;;;;;;12.85;9.98;;;21.60;31.40;;;;;;4992207;28;20381;-47
2023/03/27 11:58:57;;;;;;;13.88;9.88;;;21.60;31.40;;;;;;4993393;28;20086;-48
2023/03/27 12:01:29;;;;;;;12.38;9.02;;;21.60;31.80;;;;;;4992581;28;20117;-48
2023/03/27 12:04:05;;;;;;;12.27;9.07;;;21.60;31.40;;;;;;4993003;28;20027;-49
2023/03/27 12:07:04;;;;;;;9.73;7.70;;;21.60;31.40;;;;;;4991256;28;20412;-46
2023/03/27 12:09:58;;;;;;;11.45;8.48;;;21.60;31.40;;;;;;4982806;28;20478;-46
2023/03/27 12:12:53;;;;;;;9.48;7.72;;;21.60;31.40;;;;;;4991552;28;20124;-45
2023/03/27 12:15:44;;;;;;;11.00;7.88;;;21.60;31.30;;;;;;4990005;28;20030;-46
2023/03/27 12:18:21;;;;;;;9.77;7.85;;;21.60;31.10;;;;;;4980120;28;20073;-45
2023/03/27 12:21:01;;;;;;;9.32;7.65;;;21.60;31.00;;;;;;4988640;28;20031;-48
2023/03/27 12:23:36;;;;;;;9.45;8.02;;;21.60;30.80;;;;;;4990905;28;20065;-49
2023/03/27 12:26:20;;;;;;;10.20;7.75;;;21.60;30.70;;;;;;4992830;28;20049;-47
2023/03/27 12:29:22;;;;;;;11.50;8.43;;;21.60;30.60;;;;;;4992262;28;20030;-51
2023/03/27 12:32:14;;;;;;;12.00;8.38;;;21.60;30.40;;;;;;4991451;28;20111;-49
2023/03/27 12:34:57;;;;;;;11.63;8.85;;;21.60;30.30;;;;;;4991052;28;20105;-50
2023/03/27 12:37:46;;;;;;;12.88;9.45;;;21.60;30.20;;;;;;4982055;28;20113;-53
2023/03/27 12:40:24;;;;;;;19.25;16.35;;;21.60;30.20;;;;;;4989986;28;20035;-46
2023/03/27 12:42:52;;;;;;;31.65;26.80;;;21.60;30.70;;;;;;4989895;28;20058;-48
2023/03/27 12:45:23;;;;;;;40.38;32.85;;;21.60;31.90;;;;;;4992004;28;20046;-47
2023/03/27 12:48:10;;;;;;;40.08;31.98;;;21.60;32.80;;;;;;4991938;28;20035;-49
2023/03/27 12:50:44;;;;;;;36.70;31.02;;;21.70;33.30;;;;;;4995238;28;20038;-47
2023/03/27 12:53:25;;;;;;;37.67;31.80;;;21.70;33.50;;;;;;4996126;28;20126;-48
2023/03/27 12:56:30;;;;;;;37.38;31.33;;;21.70;33.80;;;;;;4993783;28;20062;-47
2023/03/27 12:58:57;;;;;;;42.47;33.63;;;21.70;33.90;;;;;;4961754;28;20038;-47
2023/03/27 13:01:40;;;;;;;40.42;33.30;;;21.70;34.60;;;;;;4978171;28;20453;-48
2023/03/27 13:04:38;;;;;;;39.17;32.80;;;21.80;34.20;;;;;;4989669;28;20026;-48
2023/03/27 13:07:27;;;;;;;39.25;32.40;;;21.80;34.30;;;;;;4994535;28;20408;-49
2023/03/27 13:10:23;;;;;;;38.05;31.15;;;21.80;35.00;;;;;;4994576;28;20446;-47
2023/03/27 13:13:34;;;;;;;37.47;29.90;;;21.80;34.40;;;;;;4983306;28;20052;-51
2023/03/27 13:16:38;;;;;;;38.72;31.10;;;21.80;34.30;;;;;;4991917;28;20042;-49
2023/03/27 13:19:26;;;;;;;36.47;30.50;;;21.80;34.40;;;;;;4994076;28;20446;-47
2023/03/27 13:22:05;;;;;;;36.58;30.98;;;21.80;34.50;;;;;;4995441;28;20475;-51
2023/03/27 13:24:53;;;;;;;38.10;30.52;;;21.80;34.60;;;;;;4995905;28;20057;-52
2023/03/27 13:27:30;;;;;;;35.40;29.42;;;21.80;34.60;;;;;;4990296;28;20458;-52
2023/03/27 13:29:58;;;;;;;36.22;29.73;;;21.80;34.60;;;;;;4977138;28;20045;-48
2023/03/27 13:32:37;;;;;;;37.40;30.88;;;21.80;34.50;;;;;;4982679;28;20034;-48
2023/03/27 13:35:42;;;;;;;37.03;30.83;;;21.80;34.50;;;;;;4992852;28;20050;-50